Historyczne dane pomiarowe

Dodano dane terminowe – wersja testowa.

Dane z okresu 1951-2019

Wersja bazy: 1.34 [2019-03-16, lista zmian], aktualizacja planowana na 2019-04-15

Dane meteo z obszaru Polski uzyskane na podstawie danych udostępnionych przez Instytut Meteorologii i Gospodarki Wodnej – Państwowy Instytut Badawczy.

 

Wybierz Datę:    

       

TemperaturaWilgotnośćWiatrCiśnienieOpadyŚniegCzas trwania zjawisk
 Stacja t tx tn tng RH VA  wxwx mslp ppp RRR   cm mm wxwxwxwxwxwxwx
1994-08-14 15.7 19.9 11.1- 65.8- 4.3 3.0---- 1.8------------
1994-08-13 16.8 22.9 14.1- 87.5- 7.3 3.0---- 2.0------------
1994-08-12 17.3 18.9 14.9- 95.0- 7.0 1.7---- 1.6------------
1994-08-11 19.0 21.9 14.6- 89.0- 8.0 1.3---- 15.4------------
1994-08-10 21.3 26.5 13.6- 76.5- 6.0 1.3---- 0.0------------
1994-08-09 21.9 30.2 14.1- 78.5- 6.3 1.3---- 6.6------------
1994-08-08 23.5 28.8 16.6- 71.5- 6.0 0.7---- 0.1------------
1994-08-07 25.7 31.5 11.1- 59.3- 4.7 1.7---- 0.2------------
1994-08-06 25.3 32.0 12.1- 51.0- 1.0 1.0---- 0.0------------
1994-08-05 23.9 31.5 13.1- 78.8- 1.3 0.3---- 0.0------------
1994-08-04 23.0 30.0 16.1- 81.0- 4.7 2.0---- 0.6------------
1994-08-03 27.3 32.8 11.6- 58.8- 4.7 2.7---- 6.4------------
1994-08-02 27.5 34.5 13.1- 60.8- 4.3 1.0---- 0.6------------
1994-08-01 27.2 35.5 13.1- 66.0- 2.3 0.3---- 0.0------------
1994-07-31 27.1 35.5 13.1- 47.0- 1.0 0.7---- 0.0------------
1994-07-30 24.8 34.2 12.6- 46.0- 2.3 1.0---- 0.0------------
1994-07-29 24.0 34.6 10.6- 44.3- 1.0 0.0---- 0.0------------
1994-07-28 24.4 34.0 10.2- 48.0- 2.0 1.0---- 0.0------------
1994-07-27 23.7 33.6 10.6- 47.3- 2.3 0.0---- 0.0------------
1994-07-26 23.3 33.0 10.6- 45.8- 1.7 0.3---- 0.0------------
1994-07-25 23.3 32.0 12.6- 63.5- 1.3 0.0---- 0.0------------
1994-07-24 22.4 30.8 9.2- 48.3- 1.7 0.7---- 0.0------------
1994-07-23 21.7 29.5 9.2- 60.0- 2.0 1.3---- 0.0------------
1994-07-22 19.8 27.0 8.2- 54.8- 1.0 0.7---- 0.0------------
1994-07-21 19.2 27.0 7.3- 53.0- 1.0 0.7---- 0.0------------
1994-07-20 19.2 24.4 8.2- 57.8- 3.7 0.7---- 0.0------------
1994-07-19 19.4 24.9 11.1- 65.3- 4.7 0.7---- 0.0------------
1994-07-18 19.5 24.9 17.0- 92.8- 5.7 1.0---- 2.5------------
1994-07-17 22.3 28.5 14.1- 65.0- 3.7 1.7---- 1.2------------
1994-07-16 22.3 31.5 10.2- 59.0- 1.7 0.7---- 0.0------------
1994-07-15 23.6 30.2 15.6- 79.8- 2.3 0.7---- 0.0------------
1994-07-14 21.2 29.0 11.6- 79.8- 6.7 0.7---- 33.0------------
1994-07-13 22.7 30.5 10.2- 48.0- 2.0 0.7---- 0.0------------
1994-07-12 22.1 29.2 12.6- 53.5- 2.3 1.3---- 0.0------------
1994-07-11 18.2 22.9 10.2- 84.5- 6.7 2.7---- 0.0------------
1994-07-10 16.3 22.9 10.9- 86.3- 8.0 0.3---- 0.3------------
1994-07-09 14.8 19.4 10.2- 86.3- 7.3 2.3---- 4.5------------
1994-07-08 18.3 23.4 12.1- 74.5- 5.7 2.0---- 0.8------------
1994-07-07 20.6 27.2 12.1- 51.0- 5.7 0.3---- 1.0------------
1994-07-06 19.0 25.5 6.8- 53.8- 1.7 1.0---- 0.0------------
1994-07-05 19.8 27.5 6.3- 56.8- 2.3 0.3---- 0.0------------
1994-07-04 19.3 27.0 5.8- 55.8- 1.0 0.0---- 0.0------------
1994-07-03 18.0 26.4 4.8- 54.0- 3.0 1.0---- 0.0------------
1994-07-02 19.4 23.9 5.3- 62.8- 1.0 1.3---- 0.0------------
1994-07-01 19.6 23.4 14.6- 63.5- 1.7 1.7---- 0.0------------
1994-06-30 22.5 31.5 13.1- 76.0- 4.7 2.0---- 0.2------------
1994-06-29 24.6 32.5 12.1- 55.0- 1.0 0.0---- 0.0------------
1994-06-28 23.9 28.5 14.1- 70.8- 1.0 0.3---- 0.0------------
1994-06-27 24.2 32.5 13.6- 66.5- 1.0 0.0---- 0.0------------
1994-06-26 20.4 29.0 8.7- 59.3- 1.0 1.3---- 0.0------------
1994-06-25 14.9 22.9 1.5- 53.8- 1.3 0.7---- 0.0------------
1994-06-24 14.7 20.4 5.8- 48.3- 2.7 3.3---- 0.0------------
1994-06-23 18.4 22.8 14.8- 45.8- 3.0 3.7---- 0.0------------
1994-06-22 17.3 26.5 5.8- 65.3- 4.7 1.0---- 0.0------------
1994-06-21 15.2 20.4 3.4- 57.8- 3.7 0.7---- 0.0------------
1994-06-20 16.0 22.4 10.2- 61.0- 5.7 1.0---- 0.0------------
1994-06-19 16.7 22.5 10.6- 81.8- 5.7 2.0---- 0.0------------
1994-06-18 11.7 18.4 2.4- 73.3- 7.0 0.7---- 5.2------------
1994-06-17 11.9 15.9 8.7- 77.0- 6.0 0.7---- 0.2------------
1994-06-16 10.5 17.4 2.4- 66.3- 5.7 1.7---- 5.0------------
275.2 ms

 

Źródłem pochodzenia danych jest Instytut Meteorologii i Gospodarki Wodnej – Państwowy Instytut Badawczy. Dane Instytutu Meteorologii i Gospodarki Wodnej – Państwowego Instytutu Badawczego zostały przetworzone.

Dane źródłowe można odnaleźć na stronie https://dane.imgw.pl